Strona główna
METAR-TAF:

METAR-TAF

Lotnisko :

Sussex Airport

Sussex, New Jersey, Stany Zjednoczone

Szerokość geograficzna: 41-12-01N, Długość geograficzna: 074-37-23W, wysokość: 128 m

Aktualna obserwacja pogody

Raport powstał 39 minut temu, godzina 16:53 UTC
Cisza
Temperatura 27°C
Wilgotność 51%
Ciśnienie 1013 hPa
Widzialność: 16.1 km
bezchmurnie

METAR: KFWN 241653Z AUTO 00000KT 10SM CLR 27/16 A2990 RMK AO2 SLP120 T02720156

czas: 13:32 (17:32 UTC)


TAF: brakujący

Obserwacja i prognoza pogody dla ponad 4000 lotnisk (raport METAR i TAF).

Dostępne stacje oznaczono żółtymi i czerwonymi punktami na mapie.

Najedź kursorem aby zobaczyć nazwę stacji.

Kliknij aby zobaczyć obserwacje i prognozy pogody.

Aby zmienić mapę: kliknij na zielony przycisk z czarnym krzyżykiem, aby powiększyć; na zielony przycisk z myślnikiem, aby pomniejszyć; na zielone strzałki, aby przejść do map sąsiednich.


METAR-TAF: